Time;durP1;ratioP1;P1;durP2;ratioP2;P2;SDS_P1;SDS_P2;PMS_P1;PMS_P2;Temp;Humidity;BMP_temperature;BMP_pressure;BME280_temperature;BME280_humidity;BME280_pressure;Samples;Min_cycle;Max_cycle;Signal;HPM_P1;HPM_P2
2022/03/30 00:01:44;;;;;;;6.13;0.93;;;;;;;18.65;28.78;102097.44;4196748;28;20008;-58
2022/03/30 00:03:46;;;;;;;3.13;1.00;;;;;;;18.66;28.70;102096.34;4196941;28;20040;-58
2022/03/30 00:05:48;;;;;;;3.47;0.98;;;;;;;18.66;28.97;102104.66;4197693;28;20094;-60
2022/03/30 00:07:55;;;;;;;2.67;1.02;;;;;;;18.64;28.94;102105.97;4197717;28;20025;-60
2022/03/30 00:09:56;;;;;;;2.88;0.90;;;;;;;18.65;28.91;102113.22;4197239;28;20044;-61
2022/03/30 00:11:58;;;;;;;3.08;0.82;;;;;;;18.63;28.64;102113.44;4196535;28;20040;-60
2022/03/30 00:14:02;;;;;;;3.17;1.73;;;;;;;18.59;29.03;102109.47;4197222;28;20048;-60
2022/03/30 00:16:08;;;;;;;2.90;0.80;;;;;;;18.63;28.88;102120.91;4197165;28;20476;-59
2022/03/30 00:18:19;;;;;;;5.75;0.82;;;;;;;18.62;28.70;102125.63;4197095;28;20074;-58
2022/03/30 00:20:20;;;;;;;1.38;0.70;;;;;;;18.63;28.88;102129.25;4196632;28;20095;-59
2022/03/30 00:22:22;;;;;;;1.45;0.75;;;;;;;18.61;28.79;102126.72;4196718;28;20044;-59
2022/03/30 00:24:28;;;;;;;6.72;1.02;;;;;;;18.61;28.62;102129.50;4195910;28;20442;-60
2022/03/30 00:26:29;;;;;;;3.40;0.90;;;;;;;18.61;28.38;102140.56;4197065;28;20098;-59
2022/03/30 00:28:30;;;;;;;4.18;0.88;;;;;;;18.60;28.63;102140.78;4197089;28;20086;-60
2022/03/30 00:30:32;;;;;;;2.58;1.00;;;;;;;18.60;28.42;102146.34;4197668;28;20086;-59
2022/03/30 00:32:33;;;;;;;2.67;0.80;;;;;;;18.59;28.62;102142.72;4196572;28;20044;-59
2022/03/30 00:34:35;;;;;;;3.55;0.80;;;;;;;18.59;28.22;102142.72;4198502;28;20040;-59
2022/03/30 00:36:36;;;;;;;1.70;1.00;;;;;;;18.56;28.54;102140.44;4199610;28;20033;-60
2022/03/30 00:38:37;;;;;;;2.38;0.73;;;;;;;18.57;28.23;102144.91;4199713;28;20438;-60
2022/03/30 00:40:39;;;;;;;2.10;0.90;;;;;;;18.57;28.65;102144.91;4200066;28;20041;-60
2022/03/30 00:42:41;;;;;;;3.53;0.80;;;;;;;18.58;28.26;102156.81;4199042;28;20062;-60
2022/03/30 00:44:42;;;;;;;2.35;0.98;;;;;;;18.56;28.43;102154.31;4200050;28;20041;-59
2022/03/30 00:46:44;;;;;;;2.85;0.80;;;;;;;18.56;28.42;102159.00;4200322;28;20074;-60
2022/03/30 00:48:46;;;;;;;4.45;0.95;;;;;;;18.57;28.55;102161.53;4199989;28;20094;-60
2022/03/30 00:50:48;;;;;;;3.97;1.00;;;;;;;18.54;28.64;102162.00;4199407;28;20106;-60
2022/03/30 00:52:54;;;;;;;2.58;0.63;;;;;;;18.54;28.32;102167.53;4198550;28;20048;-60
2022/03/30 00:54:57;;;;;;;1.95;0.70;;;;;;;18.53;28.18;102165.84;4200186;28;20102;-59
2022/03/30 00:56:59;;;;;;;3.50;0.95;;;;;;;18.57;28.04;102171.78;4199815;28;20037;-60
2022/03/30 00:59:07;;;;;;;1.45;0.60;;;;;;;18.55;28.19;102172.00;4197041;28;20090;-59
2022/03/30 01:01:09;;;;;;;1.45;1.15;;;;;;;18.55;28.21;102183.09;4200028;28;20556;-59
2022/03/30 01:03:10;;;;;;;1.40;0.60;;;;;;;18.50;28.20;102175.47;4199491;28;20044;-60
2022/03/30 01:05:12;;;;;;;1.75;0.70;;;;;;;18.56;28.38;102175.63;4181832;28;20474;-60
2022/03/30 01:07:14;;;;;;;1.80;0.70;;;;;;;18.56;28.13;102189.50;4199435;28;20040;-60
2022/03/30 01:09:16;;;;;;;1.70;0.80;;;;;;;18.54;28.42;102192.47;4199646;28;20041;-58
2022/03/30 01:11:22;;;;;;;3.90;0.70;;;;;;;18.53;28.27;102193.56;4199771;28;20040;-59
2022/03/30 01:13:24;;;;;;;2.28;0.65;;;;;;;18.54;28.55;102203.56;4199324;28;20053;-59
2022/03/30 01:15:28;;;;;;;1.88;0.80;;;;;;;18.52;28.38;102197.44;4199939;28;20102;-59
2022/03/30 01:17:30;;;;;;;2.00;0.85;;;;;;;18.51;28.34;102195.75;4199482;28;20470;-59
2022/03/30 01:19:34;;;;;;;3.42;0.82;;;;;;;18.52;28.10;102201.03;4199087;28;20102;-59
2022/03/30 01:21:37;;;;;;;1.50;0.57;;;;;;;18.52;28.51;102200.19;4199392;28;20033;-60
2022/03/30 01:23:41;;;;;;;3.97;0.52;;;;;;;18.51;28.56;102199.38;4199657;28;20041;-61
2022/03/30 01:25:43;;;;;;;1.23;0.63;;;;;;;18.52;28.07;102202.97;4199013;28;20094;-58
2022/03/30 01:27:45;;;;;;;1.70;0.80;;;;;;;18.51;28.35;102207.69;4199398;28;20494;-59
2022/03/30 01:32:27;;;;;;;1.95;0.82;;;;;;;18.50;28.49;102205.13;4200498;28;20542;-60
2022/03/30 01:34:31;;;;;;;0.77;0.70;;;;;;;18.50;28.10;102203.19;4198911;28;20078;-61
2022/03/30 01:36:32;;;;;;;1.10;0.75;;;;;;;18.50;28.25;102199.56;4198574;28;20094;-59
2022/03/30 01:38:36;;;;;;;1.40;0.60;;;;;;;18.50;28.49;102210.66;4198904;28;20044;-59
2022/03/30 01:40:38;;;;;;;2.17;1.00;;;;;;;18.46;28.40;102201.13;4198433;28;20032;-60
2022/03/30 01:42:40;;;;;;;3.85;0.90;;;;;;;18.49;28.29;102203.44;4180691;28;20095;-58
2022/03/30 01:44:41;;;;;;;3.00;0.80;;;;;;;18.45;28.24;102197.50;4180777;28;20520;-59
2022/03/30 01:46:43;;;;;;;1.40;0.82;;;;;;;18.49;28.65;102203.44;4197878;28;20037;-59
2022/03/30 01:48:44;;;;;;;2.42;0.63;;;;;;;18.48;28.68;102202.59;4198284;28;20036;-61
2022/03/30 01:50:46;;;;;;;2.40;1.40;;;;;;;18.48;28.49;102198.97;4198948;28;20037;-60
2022/03/30 01:52:47;;;;;;;7.13;1.05;;;;;;;18.48;29.05;102201.75;4198773;28;20083;-60
2022/03/30 01:54:49;;;;;;;1.33;0.70;;;;;;;18.47;28.52;102200.91;4199278;28;20090;-60
2022/03/30 01:56:55;;;;;;;1.88;0.70;;;;;;;18.46;28.72;102202.00;4199237;28;20098;-60
2022/03/30 01:58:56;;;;;;;1.58;0.88;;;;;;;18.48;28.62;102201.75;4199088;28;20109;-59
2022/03/30 02:00:58;;;;;;;4.90;1.20;;;;;;;18.45;28.76;102196.66;4199058;28;20660;-60
2022/03/30 02:02:59;;;;;;;3.47;0.82;;;;;;;18.49;28.45;102206.22;4198622;28;20048;-60
2022/03/30 02:05:00;;;;;;;1.20;0.70;;;;;;;18.49;28.86;102208.97;4198959;28;20036;-60
2022/03/30 02:07:04;;;;;;;3.50;0.70;;;;;;;18.49;28.91;102215.38;4198048;28;20103;-59
2022/03/30 02:09:06;;;;;;;3.28;0.93;;;;;;;18.46;28.68;102209.44;4195252;28;20044;-63
2022/03/30 02:11:08;;;;;;;2.10;0.60;;;;;;;18.48;28.75;102202.59;4181288;28;20102;-58
2022/03/30 02:13:13;;;;;;;2.53;0.80;;;;;;;18.48;28.81;102202.59;4180480;28;20037;-60
2022/03/30 02:15:15;;;;;;;1.35;1.00;;;;;;;18.49;28.78;102208.97;4181071;28;20045;-60
2022/03/30 02:17:18;;;;;;;3.28;0.95;;;;;;;18.48;28.62;102207.28;4198260;28;20393;-60
2022/03/30 02:19:20;;;;;;;3.38;0.80;;;;;;;18.48;29.12;102207.28;4182299;28;20095;-60
2022/03/30 02:21:24;;;;;;;4.15;1.20;;;;;;;18.46;29.23;102192.81;4186388;28;21256;-60
2022/03/30 02:23:25;;;;;;;3.70;0.93;;;;;;;18.47;29.06;102202.84;4198165;28;20597;-58
2022/03/30 02:25:27;;;;;;;1.65;1.00;;;;;;;18.47;29.48;102202.84;4198063;28;20078;-60
2022/03/30 02:27:35;;;;;;;3.67;1.15;;;;;;;18.47;29.40;102200.91;4198396;28;20078;-60
2022/03/30 02:29:37;;;;;;;1.13;0.80;;;;;;;18.45;29.44;102199.44;4198535;28;20101;-60
2022/03/30 02:31:38;;;;;;;2.97;0.95;;;;;;;18.47;29.39;102200.06;4197857;28;20421;-59
2022/03/30 02:33:46;;;;;;;1.58;1.00;;;;;;;18.47;29.30;102211.16;4197825;28;20097;-61
2022/03/30 02:35:47;;;;;;;2.95;1.02;;;;;;;18.47;29.42;102205.59;4198018;28;20090;-61
2022/03/30 02:37:54;;;;;;;4.53;0.98;;;;;;;18.45;29.53;102203.03;4197337;28;20576;-60
2022/03/30 02:39:56;;;;;;;1.92;0.90;;;;;;;18.49;30.04;102208.97;4198055;28;20545;-59
2022/03/30 02:41:57;;;;;;;1.15;0.63;;;;;;;18.45;30.26;102207.75;4196496;28;20070;-59
2022/03/30 02:43:58;;;;;;;3.00;0.90;;;;;;;18.48;30.21;102207.28;4198138;28;20037;-59
2022/03/30 02:46:00;;;;;;;3.72;0.90;;;;;;;18.45;30.21;102200.28;4198396;28;20601;-58
2022/03/30 02:48:23;;;;;;;1.55;0.85;;;;;;;18.49;30.40;102208.97;4195870;28;20517;-60
2022/03/30 02:50:24;;;;;;;2.15;1.00;;;;;;;18.49;30.16;102212.59;4197521;28;20053;-58
2022/03/30 02:52:29;;;;;;;2.55;0.90;;;;;;;18.47;30.69;102200.06;4197485;28;20070;-59
2022/03/30 02:54:30;;;;;;;2.45;1.17;;;;;;;18.46;31.60;102209.44;4197192;28;20090;-58
2022/03/30 02:56:32;;;;;;;3.60;0.90;;;;;;;18.50;30.53;102217.03;4197229;28;20479;-60
2022/03/30 02:58:33;;;;;;;43.47;23.98;;;;;;;18.50;30.55;102211.50;4197733;28;20036;-60
2022/03/30 03:00:35;;;;;;;13.80;8.40;;;;;;;18.51;29.83;102212.38;4197087;28;20082;-60
2022/03/30 03:02:37;;;;;;;9.43;3.88;;;;;;;18.53;30.07;102221.28;4197250;28;20044;-59
2022/03/30 03:04:39;;;;;;;14.90;7.63;;;;;;;18.52;30.29;102220.44;4197893;28;20037;-59
2022/03/30 03:06:41;;;;;;;7.90;4.75;;;;;;;18.52;29.62;102225.16;4197598;28;20439;-59
2022/03/30 03:08:42;;;;;;;12.70;6.88;;;;;;;18.52;29.51;102223.22;4197498;28;20045;-60
2022/03/30 03:10:48;;;;;;;14.98;8.32;;;;;;;18.53;29.43;102224.06;4196632;28;20422;-60
2022/03/30 03:12:50;;;;;;;12.75;5.85;;;;;;;18.44;30.36;102206.91;4197796;28;20086;-59
2022/03/30 03:14:51;;;;;;;12.95;7.45;;;;;;;18.55;29.72;102232.97;4197184;28;20040;-60
2022/03/30 03:16:52;;;;;;;15.20;6.25;;;;;;;18.56;30.83;102237.47;4197935;28;20422;-60
2022/03/30 03:18:56;;;;;;;8.15;4.65;;;;;;;18.57;30.89;102241.94;4197379;28;20082;-60
2022/03/30 03:20:58;;;;;;;6.60;4.13;;;;;;;18.59;33.10;102236.13;4197409;28;20098;-59
2022/03/30 03:23:02;;;;;;;7.35;3.63;;;;;;;18.61;33.21;102239.53;4196820;28;20178;-60
2022/03/30 03:25:04;;;;;;;7.63;3.90;;;;;;;18.60;33.07;102244.25;4197278;28;20109;-61
2022/03/30 03:27:05;;;;;;;6.05;3.15;;;;;;;18.58;33.03;102232.53;4198135;28;20586;-60
2022/03/30 03:29:07;;;;;;;8.57;3.75;;;;;;;18.59;33.57;102231.44;4197325;28;20078;-59
2022/03/30 03:31:14;;;;;;;5.65;3.22;;;;;;;18.56;32.60;102226.38;4197291;28;20118;-59
2022/03/30 03:33:18;;;;;;;7.30;4.20;;;;;;;18.61;33.35;102240.38;4197713;28;20444;-60
2022/03/30 03:35:20;;;;;;;8.77;4.65;;;;;;;18.60;32.51;102244.25;4197105;28;20086;-59
2022/03/30 03:37:21;;;;;;;6.07;3.42;;;;;;;18.60;32.01;102238.69;4196671;28;20091;-61
2022/03/30 03:39:23;;;;;;;4.25;2.80;;;;;;;18.62;32.36;102249.53;4196359;28;20555;-60
2022/03/30 03:41:24;;;;;;;5.45;2.90;;;;;;;18.61;32.80;102253.41;4196043;28;20447;-60
2022/03/30 03:43:25;;;;;;;4.82;3.15;;;;;;;18.60;31.76;102244.25;4196320;28;20114;-60
2022/03/30 03:45:27;;;;;;;6.55;3.30;;;;;;;18.61;32.63;102245.94;4196272;28;20116;-60
2022/03/30 03:47:29;;;;;;;6.53;3.15;;;;;;;18.61;32.84;102251.47;4196293;28;20098;-59
2022/03/30 03:49:30;;;;;;;5.35;2.75;;;;;;;18.61;31.41;102257.00;4196748;28;20174;-60
2022/03/30 03:51:31;;;;;;;5.25;2.88;;;;;;;18.61;30.75;102250.63;4195908;28;20037;-60
2022/03/30 03:53:35;;;;;;;7.25;3.10;;;;;;;18.61;31.05;102251.47;4196107;28;20048;-60
2022/03/30 03:55:36;;;;;;;6.28;3.05;;;;;;;18.61;32.08;102251.47;4196359;28;20040;-60
2022/03/30 03:57:39;;;;;;;6.55;3.67;;;;;;;18.58;30.56;102249.16;4195961;28;20468;-60
2022/03/30 03:59:40;;;;;;;7.43;3.50;;;;;;;18.61;30.90;102250.63;4191995;28;20438;-61
2022/03/30 04:01:45;;;;;;;4.97;2.80;;;;;;;18.60;30.37;102251.69;4195705;28;20381;-60
2022/03/30 04:03:46;;;;;;;3.85;2.55;;;;;;;18.55;29.91;102246.84;4196082;28;20471;-59
2022/03/30 04:05:48;;;;;;;3.92;2.45;;;;;;;18.59;30.29;102258.31;4195972;28;20040;-59
2022/03/30 04:07:49;;;;;;;3.85;2.65;;;;;;;18.59;30.21;102258.31;4195723;28;20095;-60
2022/03/30 04:09:50;;;;;;;6.38;3.08;;;;;;;18.58;31.27;102263.03;4194618;28;20381;-59
2022/03/30 04:11:52;;;;;;;5.82;2.80;;;;;;;18.59;30.02;102264.69;4195661;28;20376;-60
2022/03/30 04:13:56;;;;;;;5.20;2.80;;;;;;;18.59;31.03;102273.03;4195512;28;20553;-60
2022/03/30 04:15:58;;;;;;;4.55;2.63;;;;;;;18.59;29.97;102272.19;4195986;28;20036;-60
2022/03/30 04:18:00;;;;;;;4.88;2.60;;;;;;;18.58;30.60;102268.56;4195639;28;20162;-60
2022/03/30 04:20:02;;;;;;;3.63;2.30;;;;;;;18.58;30.11;102268.56;4196151;28;20431;-60
2022/03/30 04:22:13;;;;;;;3.08;2.15;;;;;;;18.59;30.22;102264.69;4195980;28;20114;-60
2022/03/30 04:24:14;;;;;;;3.95;2.15;;;;;;;18.58;28.79;102274.09;4195135;28;20036;-61
2022/03/30 04:26:15;;;;;;;2.72;1.92;;;;;;;18.58;28.97;102263.03;4196494;28;20442;-59
2022/03/30 04:28:17;;;;;;;5.47;2.20;;;;;;;18.57;29.37;102261.34;4195946;28;20044;-59
2022/03/30 04:30:21;;;;;;;3.90;2.40;;;;;;;18.56;28.75;102265.19;4183681;28;20044;-60
2022/03/30 04:32:22;;;;;;;6.20;2.88;;;;;;;18.57;29.96;102264.09;4178188;28;20044;-61
2022/03/30 04:34:24;;;;;;;5.07;2.85;;;;;;;18.56;29.78;102259.66;4196162;28;20094;-61
2022/03/30 04:36:26;;;;;;;3.53;2.10;;;;;;;18.55;29.27;102263.47;4195870;28;20033;-60
2022/03/30 04:38:27;;;;;;;3.30;2.03;;;;;;;18.53;28.76;102255.41;3918072;28;7938524;-59
2022/03/30 04:40:29;;;;;;;4.75;2.65;;;;;;;18.54;28.91;102261.78;4178791;28;20574;-60
2022/03/30 04:42:30;;;;;;;3.92;2.40;;;;;;;18.54;28.82;102268.19;4196297;28;20032;-59
2022/03/30 04:44:32;;;;;;;4.05;1.88;;;;;;;18.52;28.84;102264.81;4196829;28;20040;-59
2022/03/30 04:46:35;;;;;;;3.63;2.10;;;;;;;18.53;28.53;102260.09;4196402;28;20094;-60
2022/03/30 04:48:37;;;;;;;3.00;1.80;;;;;;;18.50;28.93;102266.09;4196392;28;20090;-59
2022/03/30 04:50:41;;;;;;;3.53;2.10;;;;;;;18.53;28.92;102260.09;4196055;28;20074;-61
2022/03/30 04:52:42;;;;;;;2.20;1.80;;;;;;;18.52;28.77;102270.34;4196253;28;20082;-60
2022/03/30 04:54:44;;;;;;;3.53;1.90;;;;;;;18.52;28.45;102258.41;4195282;28;20109;-60
2022/03/30 04:56:47;;;;;;;3.80;2.22;;;;;;;18.48;28.44;102258.03;4196513;28;20044;-60
2022/03/30 04:58:50;;;;;;;3.10;1.90;;;;;;;18.53;28.51;102260.94;4195547;28;20048;-60
2022/03/30 05:00:52;;;;;;;3.70;1.98;;;;;;;18.51;28.21;102262.28;4196533;28;20113;-59
2022/03/30 05:02:53;;;;;;;3.80;1.77;;;;;;;18.52;28.44;102261.19;4195965;28;20040;-60
2022/03/30 05:04:54;;;;;;;2.50;1.60;;;;;;;18.49;28.35;102254.16;4196605;28;20097;-61
2022/03/30 05:06:56;;;;;;;2.08;1.55;;;;;;;18.50;28.31;102263.31;4197011;28;20078;-59
2022/03/30 05:09:00;;;;;;;2.45;1.75;;;;;;;18.51;28.33;102267.81;4196315;28;20050;-60
2022/03/30 05:11:01;;;;;;;3.03;1.63;;;;;;;18.51;28.33;102267.81;4179190;28;20534;-60
2022/03/30 05:13:04;;;;;;;2.13;1.63;;;;;;;18.49;28.26;102264.41;4194433;28;20285;-59
2022/03/30 05:15:07;;;;;;;3.50;2.05;;;;;;;18.50;28.52;102266.09;4196357;28;20040;-58
2022/03/30 05:17:09;;;;;;;2.25;1.70;;;;;;;18.50;28.37;102271.66;4196919;28;20046;-59
2022/03/30 05:19:11;;;;;;;2.47;1.67;;;;;;;18.49;27.90;102270.81;4196471;28;20110;-59
2022/03/30 05:21:12;;;;;;;2.13;1.48;;;;;;;18.49;28.28;102267.19;4198604;28;20049;-58
2022/03/30 05:23:13;;;;;;;2.42;1.77;;;;;;;18.50;28.25;102266.09;4199041;28;20075;-58
2022/03/30 05:25:15;;;;;;;3.08;1.65;;;;;;;18.50;28.18;102274.41;4198922;28;20052;-60
2022/03/30 05:27:17;;;;;;;4.15;1.67;;;;;;;18.49;28.15;102273.56;4199254;28;20488;-60
2022/03/30 05:29:18;;;;;;;2.33;1.55;;;;;;;18.47;27.92;102277.66;4198850;28;20110;-59
2022/03/30 05:31:19;;;;;;;2.33;1.60;;;;;;;18.48;27.74;102279.34;4197853;28;20044;-59
2022/03/30 05:33:23;;;;;;;2.72;1.45;;;;;;;18.48;28.14;102282.13;4198010;28;20029;-59
2022/03/30 05:35:25;;;;;;;2.72;1.45;;;;;;;18.48;28.43;102290.44;4198440;28;20044;-59
2022/03/30 05:37:26;;;;;;;4.30;1.40;;;;;;;18.48;28.27;102287.69;4199636;28;20066;-59
2022/03/30 05:39:28;;;;;;;2.30;1.80;;;;;;;18.47;28.20;102297.06;4198923;28;20048;-59
2022/03/30 05:41:33;;;;;;;2.70;1.50;;;;;;;18.43;28.18;102293.06;4199051;28;20033;-58
2022/03/30 05:43:34;;;;;;;;;;;;;;;18.44;28.39;102303.06;4198903;28;20052;-60
2022/03/30 05:45:35;;;;;;;2.15;1.55;;;;;;;18.48;27.97;102307.91;4199203;28;19928;-59
2022/03/30 05:47:37;;;;;;;4.07;1.65;;;;;;;18.44;28.06;102300.31;4199078;28;20082;-60
2022/03/30 05:49:38;;;;;;;1.83;1.30;;;;;;;18.48;27.63;102312.63;4199302;28;20040;-60
2022/03/30 05:51:40;;;;;;;3.03;1.42;;;;;;;18.46;27.83;102314.75;4198411;28;20032;-60
2022/03/30 05:53:41;;;;;;;2.58;1.63;;;;;;;18.44;28.15;102312.22;4199099;28;20402;-59
2022/03/30 05:55:44;;;;;;;2.28;1.60;;;;;;;18.45;28.12;102318.63;4199217;28;20036;-59
2022/03/30 05:57:46;;;;;;;2.38;1.65;;;;;;;18.44;27.96;102306.69;4198233;28;20368;-60
2022/03/30 05:59:48;;;;;;;2.03;1.50;;;;;;;18.45;28.28;102307.53;4198741;28;20036;-60
2022/03/30 06:01:49;;;;;;;1.90;1.48;;;;;;;18.44;28.30;102311.38;4197972;28;20060;-59
2022/03/30 06:03:50;;;;;;;2.08;1.48;;;;;;;18.44;29.16;102312.22;4198978;28;20048;-59
2022/03/30 06:05:52;;;;;;;2.92;1.50;;;;;;;18.44;28.95;102319.69;4198684;28;20040;-60
2022/03/30 06:07:57;;;;;;;1.75;1.33;;;;;;;18.45;29.08;102319.47;4198267;28;20044;-60
2022/03/30 06:09:59;;;;;;;;;;;;;;;18.43;29.47;102320.78;4198802;28;20479;-59
2022/03/30 06:12:04;;;;;;;1.95;1.38;;;;;;;18.48;29.00;102318.16;4198141;28;19916;-59
2022/03/30 06:14:05;;;;;;;1.90;1.10;;;;;;;18.49;29.25;102320.69;4198292;28;20033;-60
2022/03/30 06:16:08;;;;;;;1.85;1.40;;;;;;;18.49;28.99;102319.84;4198628;28;20044;-60
2022/03/30 06:18:11;;;;;;;2.00;1.30;;;;;;;18.50;29.35;102327.09;4198389;28;20118;-61
2022/03/30 06:20:13;;;;;;;2.08;1.20;;;;;;;18.49;28.97;102317.09;4197900;28;20040;-60
2022/03/30 06:22:15;;;;;;;2.60;1.20;;;;;;;18.49;29.37;102323.47;4197847;28;20404;-60
2022/03/30 06:24:17;;;;;;;4.35;1.30;;;;;;;18.51;29.50;102320.50;4197619;28;20556;-60
2022/03/30 06:26:21;;;;;;;3.45;1.27;;;;;;;18.51;29.57;102318.56;4197680;28;20423;-61
2022/03/30 06:28:26;;;;;;;1.80;1.40;;;;;;;18.51;29.70;102317.72;4197668;28;20372;-60
2022/03/30 06:30:31;;;;;;;2.17;1.30;;;;;;;18.54;29.56;102320.00;4197696;28;20113;-60
2022/03/30 06:32:32;;;;;;;1.30;1.20;;;;;;;18.56;29.45;102330.88;4179116;28;20581;-60
2022/03/30 06:34:35;;;;;;;1.17;1.08;;;;;;;18.55;29.69;102330.00;4197915;28;20044;-60
2022/03/30 06:36:38;;;;;;;3.13;1.23;;;;;;;18.56;29.44;102326.19;4197439;28;20489;-60
2022/03/30 06:38:41;;;;;;;1.83;1.23;;;;;;;18.58;29.71;102335.09;4197796;28;20036;-60
2022/03/30 06:40:47;;;;;;;1.20;1.00;;;;;;;18.59;29.56;102335.94;4197627;28;20060;-60
2022/03/30 06:42:48;;;;;;;1.67;1.15;;;;;;;18.59;29.28;102339.56;4197544;28;20094;-60
2022/03/30 06:44:49;;;;;;;1.17;1.02;;;;;;;18.59;29.44;102336.78;4198432;28;20048;-60
2022/03/30 06:46:54;;;;;;;1.83;1.20;;;;;;;18.60;29.35;102338.50;4197442;28;20044;-61
2022/03/30 06:48:56;;;;;;;1.90;1.00;;;;;;;18.60;29.62;102338.50;4197515;28;20078;-59
2022/03/30 06:50:58;;;;;;;1.58;1.20;;;;;;;18.58;29.23;102335.09;4180020;28;20033;-60
2022/03/30 06:52:59;;;;;;;1.15;1.05;;;;;;;18.61;29.56;102345.75;4196957;28;20044;-59
2022/03/30 06:55:02;;;;;;;1.90;1.20;;;;;;;18.63;29.60;102340.78;4198104;28;20090;-60
2022/03/30 06:57:05;;;;;;;1.73;1.13;;;;;;;18.63;29.67;102342.72;4198172;28;20044;-59
2022/03/30 06:59:07;;;;;;;1.23;1.08;;;;;;;18.64;29.15;102336.09;4197592;28;20414;-59
2022/03/30 07:01:08;;;;;;;1.90;1.08;;;;;;;18.61;29.41;102334.66;4196445;28;20102;-59
2022/03/30 07:03:10;;;;;;;2.35;1.50;;;;;;;18.62;29.29;102347.41;4196297;28;20036;-60
2022/03/30 07:05:11;;;;;;;1.30;0.90;;;;;;;18.65;29.26;102344.19;4197248;28;20090;-59
2022/03/30 07:11:52;;;;;;;1.73;1.05;;;;;;;18.67;29.22;102344.78;4192321;28;20090;-59
2022/03/30 07:13:59;;;;;;;0.90;0.85;;;;;;;18.65;29.41;102335.88;4194993;28;20102;-60
2022/03/30 07:16:02;;;;;;;1.40;0.90;;;;;;;18.67;29.56;102339.25;4197229;28;20094;-59
2022/03/30 07:18:04;;;;;;;1.73;1.10;;;;;;;18.67;29.42;102344.78;4197095;28;20079;-59
2022/03/30 07:20:07;;;;;;;0.98;0.80;;;;;;;18.68;29.47;102348.41;4196557;28;20101;-60
2022/03/30 07:22:10;;;;;;;0.93;0.80;;;;;;;18.68;29.23;102357.56;4194263;28;20354;-59
2022/03/30 07:24:14;;;;;;;1.00;0.82;;;;;;;18.68;29.25;102354.81;4195751;28;20048;-60
2022/03/30 07:26:17;;;;;;;1.70;1.08;;;;;;;18.68;29.06;102357.56;4197088;28;20037;-60
2022/03/30 07:28:22;;;;;;;1.70;0.90;;;;;;;18.69;29.14;102359.31;4196520;28;20036;-60
2022/03/30 07:30:24;;;;;;;1.25;0.80;;;;;;;18.69;29.36;102352.91;4197115;28;20032;-60
2022/03/30 07:32:25;;;;;;;1.58;0.80;;;;;;;18.67;29.24;102346.72;4196460;28;20033;-58
2022/03/30 07:34:26;;;;;;;1.77;1.02;;;;;;;18.70;29.47;102354.63;4196629;28;20070;-60
2022/03/30 07:36:27;;;;;;;1.90;0.95;;;;;;;18.71;29.23;102364.63;4196041;28;20086;-60
2022/03/30 07:38:29;;;;;;;1.40;1.02;;;;;;;18.70;29.11;102362.94;4196407;28;20037;-60
2022/03/30 07:40:31;;;;;;;1.40;1.00;;;;;;;18.67;29.25;102355.03;4196116;28;20369;-61
2022/03/30 07:42:33;;;;;;;1.58;1.05;;;;;;;18.71;29.50;102368.25;4194989;28;20102;-60
2022/03/30 07:44:34;;;;;;;1.10;0.70;;;;;;;18.70;29.15;102361.00;4194980;28;20025;-60
2022/03/30 07:46:38;;;;;;;1.83;1.08;;;;;;;18.70;29.22;102363.78;4195310;28;20459;-60
2022/03/30 07:48:40;;;;;;;1.35;0.95;;;;;;;18.71;29.22;102368.25;4194854;28;20037;-60
2022/03/30 07:50:45;;;;;;;1.40;1.05;;;;;;;18.68;29.21;102362.28;4196199;28;20450;-60
2022/03/30 07:52:46;;;;;;;1.65;1.27;;;;;;;18.72;29.36;102367.16;4185500;28;20048;-58
2022/03/30 07:54:48;;;;;;;1.50;0.95;;;;;;;18.68;29.34;102357.56;4196142;28;20032;-59
2022/03/30 07:56:50;;;;;;;1.58;1.10;;;;;;;18.72;29.38;102363.53;4197632;28;20077;-58
2022/03/30 07:58:53;;;;;;;2.00;1.00;;;;;;;18.72;29.34;102363.53;4196722;28;20074;-58
2022/03/30 08:00:57;;;;;;;2.42;1.40;;;;;;;18.71;29.56;102368.25;4195459;28;20403;-59
2022/03/30 08:03:00;;;;;;;1.43;0.80;;;;;;;18.72;29.44;102369.09;4194248;28;20101;-58
2022/03/30 08:05:02;;;;;;;1.02;0.70;;;;;;;18.72;29.41;102375.47;4193323;28;20934;-58
2022/03/30 08:07:06;;;;;;;1.20;0.70;;;;;;;18.72;29.53;102369.94;4195284;28;20044;-59
2022/03/30 08:09:08;;;;;;;1.25;0.85;;;;;;;18.69;29.20;102367.66;4195148;28;20128;-58
2022/03/30 08:11:09;;;;;;;1.80;1.08;;;;;;;18.75;29.46;102376.97;4196748;28;20040;-59
2022/03/30 08:13:12;;;;;;;1.00;0.80;;;;;;;18.74;29.28;102378.88;4196461;28;20098;-59
2022/03/30 08:15:15;;;;;;;1.08;0.90;;;;;;;18.75;29.08;102382.50;4196052;28;20093;-58
2022/03/30 08:17:17;;;;;;;1.35;0.80;;;;;;;18.74;29.39;102384.44;4196564;28;20437;-58
2022/03/30 08:19:18;;;;;;;0.90;0.80;;;;;;;18.75;29.33;102386.13;4197295;28;20052;-59
2022/03/30 08:23:40;;;;;;;1.60;0.93;;;;;;;18.74;29.14;102373.34;4198854;28;20526;-59
2022/03/30 08:25:41;;;;;;;1.40;0.80;;;;;;;18.75;29.26;102383.34;4194680;28;20099;-58
2022/03/30 08:27:43;;;;;;;0.98;0.80;;;;;;;18.75;29.27;102382.50;4183262;28;20450;-58
2022/03/30 08:29:45;;;;;;;1.17;0.85;;;;;;;18.75;29.16;102386.13;4196201;28;20114;-60
2022/03/30 08:31:48;;;;;;;1.35;0.98;;;;;;;18.75;29.31;102379.72;4195913;28;20045;-58
2022/03/30 08:33:49;;;;;;;1.50;1.05;;;;;;;18.75;29.12;102385.28;4194708;28;20045;-59
2022/03/30 08:35:54;;;;;;;1.38;1.10;;;;;;;18.72;29.26;102375.47;4194956;28;20045;-59
2022/03/30 08:37:59;;;;;;;;;;;;;;;18.74;29.06;102378.03;4196173;28;20040;-59
2022/03/30 08:40:00;;;;;;;1.25;0.90;;;;;;;18.79;28.92;102369.88;4195510;28;19917;-59
2022/03/30 08:42:03;;;;;;;1.25;1.13;;;;;;;18.78;29.16;102380.13;4196284;28;20044;-59
2022/03/30 08:44:05;;;;;;;1.13;1.02;;;;;;;18.78;29.06;102377.34;4194648;28;20041;-58
2022/03/30 08:46:07;;;;;;;1.80;1.15;;;;;;;18.77;28.87;102375.63;4196499;28;20086;-60
2022/03/30 08:48:08;;;;;;;1.88;0.93;;;;;;;18.77;29.03;102372.84;4195641;28;20040;-60
2022/03/30 08:50:10;;;;;;;1.45;1.13;;;;;;;18.75;29.19;102363.94;4195759;28;20040;-59
2022/03/30 08:52:11;;;;;;;1.50;1.20;;;;;;;18.77;28.81;102372.84;4196582;28;20074;-60
2022/03/30 08:54:17;;;;;;;1.30;1.20;;;;;;;18.76;29.10;102365.63;4195010;28;20443;-59
2022/03/30 08:56:23;;;;;;;1.23;0.77;;;;;;;18.75;29.02;102358.38;4198268;28;20557;-59
2022/03/30 08:58:25;;;;;;;1.98;1.00;;;;;;;18.74;28.83;102345.63;4199348;28;20041;-60
2022/03/30 09:00:34;;;;;;;1.38;0.88;;;;;;;18.77;28.92;102356.22;4199298;28;20496;-59
2022/03/30 09:02:46;;;;;;;1.42;0.90;;;;;;;18.76;28.65;102362.84;4198869;28;20048;-60
2022/03/30 09:05:08;;;;;;;1.42;0.82;;;;;;;18.76;28.45;102359.22;4183803;28;20048;-59
2022/03/30 09:07:09;;;;;;;1.48;0.90;;;;;;;18.78;28.65;102363.47;4184643;28;20037;-59
2022/03/30 09:09:15;;;;;;;2.13;0.95;;;;;;;18.76;28.77;102360.06;4199100;28;20098;-59
2022/03/30 09:11:19;;;;;;;1.95;0.90;;;;;;;18.77;28.61;102372.84;4199424;28;20086;-59
2022/03/30 09:13:21;;;;;;;2.95;0.90;;;;;;;18.73;28.52;102363.31;4198985;28;20472;-60
2022/03/30 09:15:23;;;;;;;1.30;0.70;;;;;;;18.76;28.71;102362.84;4199498;28;20040;-60
2022/03/30 09:17:24;;;;;;;1.27;0.90;;;;;;;18.76;28.35;102365.63;4199400;28;20041;-60
2022/03/30 09:19:27;;;;;;;0.85;0.82;;;;;;;18.74;28.56;102367.78;4199485;28;20040;-59
2022/03/30 09:21:53;;;;;;;1.70;1.17;;;;;;;18.73;28.62;102351.38;4199719;28;20094;-59
2022/03/30 09:23:54;;;;;;;1.42;1.00;;;;;;;18.75;28.46;102358.38;4199432;28;20538;-59
2022/03/30 09:25:56;;;;;;;3.17;0.85;;;;;;;18.75;28.20;102363.09;4199615;28;20044;-59
2022/03/30 09:27:59;;;;;;;1.58;1.17;;;;;;;18.74;28.23;102367.78;4198153;28;20040;-59
2022/03/30 09:30:01;;;;;;;1.00;0.80;;;;;;;18.74;28.59;102361.41;4198613;28;20040;-59
2022/03/30 09:32:06;;;;;;;1.30;1.00;;;;;;;18.75;28.61;102357.53;4199070;28;20102;-59
2022/03/30 09:34:09;;;;;;;0.98;0.82;;;;;;;18.74;28.48;102359.47;4181754;28;20033;-59
2022/03/30 09:36:27;;;;;;;1.10;1.00;;;;;;;18.71;28.16;102362.69;4198960;28;20385;-59
2022/03/30 09:38:38;;;;;;;1.38;0.88;;;;;;;18.72;28.38;102350.53;4199412;28;20106;-59
2022/03/30 09:40:58;;;;;;;1.30;0.93;;;;;;;18.71;28.49;102346.06;4198792;28;20472;-58
2022/03/30 09:43:41;;;;;;;2.83;1.10;;;;;;;18.68;28.50;102340.94;4196744;28;20040;-59